Time;durP1;ratioP1;P1;durP2;ratioP2;P2;SDS_P1;SDS_P2;PMS_P1;PMS_P2;Temp;Humidity;BMP_temperature;BMP_pressure;BME280_temperature;BME280_humidity;BME280_pressure;Samples;Min_cycle;Max_cycle;Signal;HPM_P1;HPM_P2
2022/05/21 00:01:08;;;;;;;19.05;17.05;;;;;;;11.12;85.55;101861.53;4989553;28;20030;-66
2022/05/21 00:03:34;;;;;;;19.27;17.30;;;;;;;11.13;85.73;101862.38;4990094;28;20511;-66
2022/05/21 00:05:59;;;;;;;20.45;18.35;;;;;;;11.06;85.67;101859.34;4989387;28;20093;-65
2022/05/21 00:08:25;;;;;;;20.70;18.33;;;;;;;11.10;86.14;101863.41;4988805;28;20107;-66
2022/05/21 00:10:50;;;;;;;18.77;16.85;;;;;;;11.01;85.24;101864.03;4989567;28;20030;-66
2022/05/21 00:13:15;;;;;;;20.42;18.33;;;;;;;11.16;85.50;101862.16;4989015;28;20056;-65
2022/05/21 00:15:41;;;;;;;19.60;17.30;;;;;;;11.08;85.43;101862.69;4989083;28;20030;-66
2022/05/21 00:18:09;;;;;;;19.48;17.38;;;;;;;11.04;85.67;101863.81;4987000;28;20414;-66
2022/05/21 00:20:47;;;;;;;21.17;18.15;;;;;;;10.98;85.79;101853.84;4989584;28;20479;-66
2022/05/21 00:23:30;;;;;;;20.00;18.00;;;;;;;10.95;86.50;101854.03;4988921;28;20498;-65
2022/05/21 00:26:10;;;;;;;18.70;16.80;;;;;;;11.04;85.68;101863.00;4984531;28;20467;-66
2022/05/21 00:28:38;;;;;;;18.92;16.98;;;;;;;10.99;86.30;101860.69;4988766;28;20489;-66
2022/05/21 00:31:04;;;;;;;17.85;16.05;;;;;;;11.00;86.13;101859.75;4988939;28;20033;-66
2022/05/21 00:33:31;;;;;;;18.33;16.60;;;;;;;10.99;85.79;101857.28;4988490;28;20077;-66
2022/05/21 00:35:56;;;;;;;17.75;15.90;;;;;;;11.04;86.55;101857.78;4989099;28;20030;-68
2022/05/21 00:38:22;;;;;;;18.73;16.55;;;;;;;10.96;86.40;101855.72;4980094;28;20113;-66
2022/05/21 00:40:49;;;;;;;17.88;15.90;;;;;;;11.00;86.48;101859.75;4981424;28;20041;-66
2022/05/21 00:43:54;;;;;;;19.15;16.75;;;;;;;11.10;87.09;101858.22;4973966;28;20074;-66
2022/05/21 00:46:20;;;;;;;18.42;15.35;;;;;;;11.05;86.35;101855.09;4965904;28;20038;-66
2022/05/21 00:49:10;;;;;;;17.73;15.82;;;;;;;11.06;86.98;101856.75;4988455;28;20038;-66
2022/05/21 00:51:50;;;;;;;17.85;15.75;;;;;;;11.12;86.62;101858.94;4961667;28;20114;-66
2022/05/21 00:54:17;;;;;;;18.48;15.40;;;;;;;11.07;86.62;101862.81;4969247;28;20030;-66
2022/05/21 00:56:49;;;;;;;16.83;14.73;;;;;;;11.10;86.44;101853.03;4988220;28;20053;-66
2022/05/21 01:02:02;;;;;;;17.67;14.85;;;;;;;11.15;85.94;101861.34;4988888;28;20112;-65
2022/05/21 01:04:27;;;;;;;17.23;14.30;;;;;;;11.09;86.60;101848.75;4970666;28;20497;-66
2022/05/21 01:06:56;;;;;;;17.02;14.80;;;;;;;11.12;85.96;101853.75;4988003;28;20026;-65
2022/05/21 01:09:21;;;;;;;15.75;13.68;;;;;;;11.21;85.64;101856.66;4988240;28;20033;-66
2022/05/21 01:11:47;;;;;;;16.92;15.15;;;;;;;11.17;85.82;101854.25;4984183;28;20023;-66
2022/05/21 01:14:15;;;;;;;17.10;15.30;;;;;;;11.20;86.35;101857.59;4968544;28;20031;-67
2022/05/21 01:16:42;;;;;;;18.20;15.00;;;;;;;11.17;86.58;101859.44;4958021;28;20046;-66
2022/05/21 01:19:09;;;;;;;17.58;15.10;;;;;;;11.17;85.73;101854.25;4968594;28;20165;-65
2022/05/21 01:21:36;;;;;;;20.90;14.88;;;;;;;11.27;85.95;101853.66;4968746;28;20038;-65
2022/05/21 01:24:02;;;;;;;16.88;14.70;;;;;;;11.20;86.22;101849.81;4969202;28;20447;-66
2022/05/21 01:26:28;;;;;;;18.95;14.98;;;;;;;11.21;86.49;101843.69;4987663;28;20037;-66
2022/05/21 01:28:54;;;;;;;17.38;15.52;;;;;;;11.24;85.67;101848.66;4987829;28;20038;-66
2022/05/21 01:31:20;;;;;;;18.27;15.02;;;;;;;11.25;85.90;101850.34;4987582;28;20040;-66
2022/05/21 01:33:45;;;;;;;17.35;15.40;;;;;;;11.27;86.47;101853.66;4988201;28;20054;-66
2022/05/21 01:36:13;;;;;;;17.13;14.35;;;;;;;11.30;86.03;101848.25;4986663;28;20493;-66
2022/05/21 01:38:38;;;;;;;17.17;15.43;;;;;;;11.28;85.77;101850.94;4987299;28;20050;-65
2022/05/21 01:41:07;;;;;;;19.80;15.32;;;;;;;11.32;85.81;101851.56;4986429;28;20784;-67
2022/05/21 01:46:17;;;;;;;19.15;15.10;;;;;;;11.27;86.01;101846.69;4977372;28;20057;-65
2022/05/21 01:48:43;;;;;;;18.30;15.30;;;;;;;11.31;86.26;101845.56;4981108;28;20453;-65
2022/05/21 01:51:09;;;;;;;17.98;15.07;;;;;;;11.32;86.37;101841.19;4959786;28;20031;-66
2022/05/21 01:53:36;;;;;;;18.65;14.88;;;;;;;11.25;86.41;101845.16;4986803;28;20417;-66
2022/05/21 01:56:02;;;;;;;19.00;14.70;;;;;;;11.33;85.93;101858.44;4982985;28;20026;-65
2022/05/21 01:58:28;;;;;;;17.63;14.88;;;;;;;11.30;86.44;101858.66;4988093;28;20546;-66
2022/05/21 02:00:55;;;;;;;17.08;14.32;;;;;;;11.33;85.83;101856.66;4991977;28;20080;-66
2022/05/21 02:03:21;;;;;;;17.50;14.10;;;;;;;11.33;86.72;101861.03;4981225;28;20035;-66
2022/05/21 02:05:47;;;;;;;17.00;14.60;;;;;;;11.34;86.47;101860.06;4972421;28;20106;-68
2022/05/21 02:08:14;;;;;;;19.50;14.73;;;;;;;11.35;86.33;101857.38;4971412;28;20142;-65
2022/05/21 02:10:40;;;;;;;18.60;14.77;;;;;;;11.30;87.24;101863.84;4985484;28;20026;-66
2022/05/21 02:13:06;;;;;;;16.55;14.25;;;;;;;11.32;86.42;101846.38;4970325;28;20054;-65
2022/05/21 02:15:31;;;;;;;17.50;14.57;;;;;;;11.36;86.34;101853.03;4982586;28;20356;-66
2022/05/21 02:17:57;;;;;;;18.23;14.93;;;;;;;11.39;86.14;101858.00;4982030;28;20025;-65
2022/05/21 02:20:22;;;;;;;18.20;14.40;;;;;;;11.39;86.05;101847.63;4990235;28;20026;-66
2022/05/21 02:22:48;;;;;;;18.95;15.20;;;;;;;11.43;86.40;101854.28;4989224;28;20411;-65
2022/05/21 02:25:16;;;;;;;17.70;15.70;;;;;;;11.42;86.87;101843.06;4990740;28;20397;-65
2022/05/21 02:27:42;;;;;;;19.27;15.68;;;;;;;11.38;86.77;101832.97;4972664;28;20042;-67
2022/05/21 02:30:08;;;;;;;18.15;15.45;;;;;;;11.46;86.98;101848.84;4977869;28;20022;-67
2022/05/21 02:32:33;;;;;;;19.92;16.33;;;;;;;11.41;86.84;101850.94;4989613;28;20156;-66
2022/05/21 02:34:58;;;;;;;19.73;15.73;;;;;;;11.44;87.42;101855.94;4982841;28;20081;-65
2022/05/21 02:40:08;;;;;;;20.10;15.60;;;;;;;11.49;87.23;101846.06;4984743;28;20089;-66
2022/05/21 02:42:43;;;;;;;20.75;15.75;;;;;;;11.44;87.17;101853.31;4991042;28;20041;-66
2022/05/21 02:45:19;;;;;;;20.17;15.68;;;;;;;11.52;86.69;101848.41;4991090;28;20061;-69
2022/05/21 02:47:46;;;;;;;19.08;15.43;;;;;;;11.53;86.96;101850.09;4980349;28;20031;-66
2022/05/21 02:50:14;;;;;;;20.45;15.45;;;;;;;11.49;86.93;101840.84;4971458;28;20113;-65
2022/05/21 02:52:39;;;;;;;19.98;15.65;;;;;;;11.57;87.71;101843.75;4984627;28;20042;-65
2022/05/21 02:55:07;;;;;;;19.20;15.15;;;;;;;11.48;86.95;101836.59;4975842;28;20026;-65
2022/05/21 02:57:33;;;;;;;19.70;15.27;;;;;;;11.59;86.72;101839.28;4971567;28;20035;-66
2022/05/21 03:00:07;;;;;;;19.60;15.38;;;;;;;11.61;87.03;101841.78;4971589;28;20035;-66
2022/05/21 03:02:33;;;;;;;21.95;15.60;;;;;;;11.55;87.44;101845.63;4990163;28;20034;-65
2022/05/21 03:04:58;;;;;;;20.20;15.35;;;;;;;11.51;87.10;101845.94;4990778;28;20037;-66
2022/05/21 03:07:24;;;;;;;20.92;15.35;;;;;;;11.56;87.90;101849.06;4989030;28;20034;-66
2022/05/21 03:12:34;;;;;;;20.25;15.63;;;;;;;11.48;87.03;101836.59;4990523;28;20104;-66
2022/05/21 03:15:00;;;;;;;23.25;15.80;;;;;;;11.53;87.59;101844.91;4972850;28;20466;-65
2022/05/21 03:17:27;;;;;;;22.92;16.25;;;;;;;11.52;86.54;101850.19;4990428;28;20034;-69
2022/05/21 03:19:52;;;;;;;22.05;15.88;;;;;;;11.55;86.85;101852.59;4972897;28;20022;-65
2022/05/21 03:22:17;;;;;;;23.85;15.90;;;;;;;11.51;87.44;101841.56;4975850;28;20034;-66
2022/05/21 03:24:43;;;;;;;20.02;15.07;;;;;;;11.53;86.72;101847.50;4971126;28;20027;-66
2022/05/21 03:27:09;;;;;;;22.13;16.17;;;;;;;11.52;87.20;101842.41;4986135;28;20108;-65
2022/05/21 03:29:34;;;;;;;20.80;16.08;;;;;;;11.52;87.57;101853.63;4990253;28;20367;-66
2022/05/21 03:32:00;;;;;;;20.88;16.23;;;;;;;11.38;87.54;101831.19;4990142;28;20371;-65
2022/05/21 03:34:25;;;;;;;22.58;17.00;;;;;;;11.47;87.89;101847.06;4989606;28;20046;-66
2022/05/21 03:36:50;;;;;;;24.58;16.88;;;;;;;11.57;87.87;101859.31;4989993;28;20026;-65
2022/05/21 03:39:16;;;;;;;23.85;16.15;;;;;;;11.56;87.85;101854.25;4990202;28;20030;-65
2022/05/21 03:41:41;;;;;;;22.60;16.17;;;;;;;11.58;87.15;101857.56;4989655;28;20030;-67
2022/05/21 03:44:07;;;;;;;21.83;16.00;;;;;;;11.56;87.36;101855.06;4989937;28;20544;-66
2022/05/21 03:46:34;;;;;;;23.25;16.80;;;;;;;11.57;87.82;101854.13;4989949;28;20022;-65
2022/05/21 03:48:59;;;;;;;21.45;16.02;;;;;;;11.50;88.03;101850.31;4990223;28;20374;-65
2022/05/21 03:51:24;;;;;;;22.83;16.58;;;;;;;11.55;87.92;101863.81;4989320;28;20022;-65
2022/05/21 03:53:50;;;;;;;25.10;16.00;;;;;;;11.58;88.00;101865.34;4985292;28;20057;-65
2022/05/21 03:56:15;;;;;;;23.70;15.73;;;;;;;11.63;87.68;101855.47;4978114;28;20426;-66
2022/05/21 03:58:41;;;;;;;23.83;16.02;;;;;;;11.59;87.73;101854.88;4989780;28;20018;-66
2022/05/21 04:01:06;;;;;;;19.42;15.70;;;;;;;11.68;87.69;101858.59;4989595;28;20076;-65
2022/05/21 04:03:33;;;;;;;24.20;16.30;;;;;;;11.59;88.11;101860.06;4989124;28;20459;-65
2022/05/21 04:05:59;;;;;;;26.40;16.13;;;;;;;11.56;88.22;101857.66;4989259;28;20495;-65
2022/05/21 04:08:24;;;;;;;25.50;15.70;;;;;;;11.57;87.84;101856.72;4989021;28;20439;-66
2022/05/21 04:10:50;;;;;;;24.10;15.68;;;;;;;11.63;87.36;101858.06;4989033;28;20076;-65
2022/05/21 04:13:16;;;;;;;23.02;15.23;;;;;;;11.65;87.93;101875.25;4989094;28;20057;-66
2022/05/21 04:15:42;;;;;;;21.13;14.95;;;;;;;11.68;87.85;101872.41;4989075;28;20076;-66
2022/05/21 04:18:07;;;;;;;21.50;15.55;;;;;;;11.64;87.82;101864.94;4988897;28;20387;-66
2022/05/21 04:20:33;;;;;;;25.42;16.33;;;;;;;11.64;88.32;101883.13;4988518;28;20050;-65
2022/05/21 04:22:58;;;;;;;22.70;15.50;;;;;;;11.75;88.10;101874.59;4969549;28;20403;-66
2022/05/21 04:25:24;;;;;;;25.15;16.00;;;;;;;11.70;88.48;101878.34;4972796;28;20030;-65
2022/05/21 04:27:50;;;;;;;22.20;15.27;;;;;;;11.76;87.20;101881.47;4986731;28;20073;-65
2022/05/21 04:30:20;;;;;;;19.20;15.18;;;;;;;11.67;88.51;101882.91;4988563;28;20280;-66
2022/05/21 04:32:47;;;;;;;23.42;15.35;;;;;;;11.65;88.71;101879.59;4988867;28;20047;-65
2022/05/21 04:35:13;;;;;;;23.50;15.40;;;;;;;11.69;88.75;101884.47;4988979;28;20113;-65
2022/05/21 04:37:39;;;;;;;23.13;15.05;;;;;;;11.65;88.51;101896.03;4989167;28;20578;-65
2022/05/21 04:40:08;;;;;;;21.70;15.05;;;;;;;11.62;88.81;101890.19;4988829;28;20475;-65
2022/05/21 04:42:33;;;;;;;22.73;14.38;;;;;;;11.62;88.61;101901.41;4988414;28;20030;-66
2022/05/21 04:44:58;;;;;;;24.90;14.38;;;;;;;11.64;89.39;101902.16;4988579;28;20037;-65
2022/05/21 04:47:24;;;;;;;23.52;14.65;;;;;;;11.65;88.26;101906.41;4972307;28;20027;-66
2022/05/21 04:49:49;;;;;;;23.50;14.95;;;;;;;11.63;88.67;101897.88;4969046;28;20119;-66
2022/05/21 04:52:14;;;;;;;19.90;13.98;;;;;;;11.66;88.22;101899.47;4967829;28;20136;-66
2022/05/21 04:54:40;;;;;;;21.85;13.98;;;;;;;11.63;88.38;101902.25;4980770;28;20030;-65
2022/05/21 04:57:06;;;;;;;22.45;13.63;;;;;;;11.63;88.75;101902.25;4988227;28;20053;-65
2022/05/21 04:59:31;;;;;;;22.95;13.45;;;;;;;11.65;88.43;101897.78;4987355;28;20076;-66
2022/05/21 05:01:58;;;;;;;22.52;13.63;;;;;;;11.64;88.41;101909.97;4970416;28;20054;-66
2022/05/21 05:04:24;;;;;;;21.10;13.23;;;;;;;11.63;88.22;101908.28;4988284;28;20037;-66
2022/05/21 05:06:49;;;;;;;19.58;12.82;;;;;;;11.68;88.88;101921.78;4988310;28;20038;-68
2022/05/21 05:09:17;;;;;;;21.40;12.48;;;;;;;11.63;88.50;101908.28;4970387;28;20034;-66
2022/05/21 05:11:42;;;;;;;18.27;11.55;;;;;;;11.61;88.51;101898.94;4988156;28;20030;-65
2022/05/21 05:14:08;;;;;;;21.50;11.95;;;;;;;11.69;88.85;101913.03;4988285;28;20521;-66
2022/05/21 05:16:33;;;;;;;20.77;11.38;;;;;;;11.75;88.22;101916.16;4988326;28;20431;-66
2022/05/21 05:18:59;;;;;;;20.90;10.80;;;;;;;11.75;89.33;101916.16;4987767;28;20034;-65
2022/05/21 05:21:25;;;;;;;22.10;11.45;;;;;;;11.74;88.92;101919.72;4988377;28;20485;-64
2022/05/21 05:23:50;;;;;;;22.42;10.48;;;;;;;11.85;88.30;101923.25;4988374;28;20034;-65
2022/05/21 05:26:16;;;;;;;24.52;10.60;;;;;;;11.80;88.32;101927.06;4975855;28;20033;-65
2022/05/21 05:28:42;;;;;;;20.80;10.02;;;;;;;11.87;88.33;101937.00;4975512;28;20145;-65
2022/05/21 05:31:08;;;;;;;18.23;9.93;;;;;;;11.93;88.35;101935.75;4972844;28;20109;-65
2022/05/21 05:33:33;;;;;;;21.20;9.60;;;;;;;11.99;87.85;101932.72;4968456;28;20148;-65
2022/05/21 05:35:59;;;;;;;20.05;9.07;;;;;;;11.96;88.59;101940.72;4987656;28;20463;-65
2022/05/21 05:38:24;;;;;;;22.13;9.65;;;;;;;11.99;88.28;101930.09;4982404;28;20030;-66
2022/05/21 05:40:52;;;;;;;19.92;9.20;;;;;;;12.07;88.02;101932.16;4970680;28;20448;-65
2022/05/21 05:43:19;;;;;;;23.15;8.93;;;;;;;12.02;87.57;101935.09;4968048;28;20121;-66
2022/05/21 05:45:45;;;;;;;22.70;9.30;;;;;;;12.13;87.85;101942.97;4971380;28;20031;-66
2022/05/21 05:48:10;;;;;;;19.67;8.38;;;;;;;12.16;87.75;101937.56;4987385;28;20033;-65
2022/05/21 05:50:36;;;;;;;20.15;8.20;;;;;;;12.23;87.49;101948.34;4987703;28;20036;-66
2022/05/21 05:53:07;;;;;;;20.67;8.35;;;;;;;12.24;87.29;101944.81;4987496;28;20029;-65
2022/05/21 05:55:34;;;;;;;20.13;8.90;;;;;;;12.36;87.71;101945.72;4968965;28;20058;-66
2022/05/21 05:57:59;;;;;;;19.92;8.23;;;;;;;12.37;87.58;101939.56;4968549;28;20030;-66
2022/05/21 06:00:26;;;;;;;17.85;8.48;;;;;;;12.34;87.26;101937.19;4968384;28;20467;-66
2022/05/21 06:03:03;;;;;;;22.02;8.75;;;;;;;12.48;86.58;101937.84;4975615;28;20113;-65
2022/05/21 06:05:32;;;;;;;19.92;7.82;;;;;;;12.51;86.59;101947.22;4987636;28;20470;-65
2022/05/21 06:08:00;;;;;;;19.25;8.10;;;;;;;12.53;86.72;101945.34;4984557;28;20038;-65
2022/05/21 06:10:27;;;;;;;;;;;;;;;12.71;86.39;101951.81;4971933;28;20475;-67
2022/05/21 06:12:53;;;;;;;21.30;8.07;;;;;;;12.73;86.29;101955.16;4983883;28;20008;-65
2022/05/21 06:15:18;;;;;;;21.45;8.05;;;;;;;12.82;86.28;101960.63;4970287;28;20198;-65
2022/05/21 06:17:45;;;;;;;18.48;7.78;;;;;;;12.84;86.02;101958.72;4963711;28;20061;-65
2022/05/21 06:20:14;;;;;;;18.25;8.02;;;;;;;12.95;85.92;101957.00;4987046;28;20113;-65
2022/05/21 06:22:41;;;;;;;19.50;8.20;;;;;;;12.97;86.06;101959.50;4984522;28;20030;-66
2022/05/21 06:25:07;;;;;;;18.88;8.00;;;;;;;13.00;85.61;101959.25;4972948;28;20066;-65
2022/05/21 06:27:32;;;;;;;18.92;7.78;;;;;;;12.98;85.27;101953.34;4974762;28;20031;-66
2022/05/21 06:29:59;;;;;;;20.92;8.10;;;;;;;13.06;84.96;101948.38;4973330;28;20057;-68
2022/05/21 06:32:24;;;;;;;20.60;7.60;;;;;;;13.16;85.03;101959.78;4974982;28;20387;-65
2022/05/21 06:34:50;;;;;;;20.65;8.23;;;;;;;13.17;85.18;101951.03;4955704;28;20030;-65
2022/05/21 06:37:15;;;;;;;18.90;8.05;;;;;;;13.26;84.91;101949.56;4968406;28;20311;-67
2022/05/21 06:39:42;;;;;;;16.58;7.13;;;;;;;13.38;84.35;101968.66;4982104;28;20465;-65
2022/05/21 06:42:08;;;;;;;20.25;7.05;;;;;;;13.43;83.64;101967.34;4971478;28;20070;-65
2022/05/21 06:44:34;;;;;;;18.83;7.70;;;;;;;13.54;83.50;101969.16;4976285;28;20061;-65
2022/05/21 06:46:59;;;;;;;17.73;8.05;;;;;;;13.61;83.09;101979.94;4980404;28;20058;-65
2022/05/21 06:49:26;;;;;;;19.38;6.88;;;;;;;13.63;82.33;101984.09;4983741;28;20109;-65
2022/05/21 06:51:56;;;;;;;17.52;7.00;;;;;;;13.64;81.52;101980.53;4979147;28;20022;-66
2022/05/21 06:54:23;;;;;;;21.00;6.95;;;;;;;13.71;82.06;101989.56;4980703;28;20027;-65
2022/05/21 06:56:48;;;;;;;18.20;6.70;;;;;;;13.72;82.12;101983.38;4978345;28;20459;-66
2022/05/21 06:59:15;;;;;;;21.17;6.30;;;;;;;13.71;80.55;101986.94;4981395;28;20053;-65
2022/05/21 07:01:41;;;;;;;15.85;5.78;;;;;;;13.71;80.42;101976.53;4990736;28;20030;-65
2022/05/21 07:04:06;;;;;;;17.88;6.00;;;;;;;13.73;80.48;101979.84;4981247;28;20041;-65
2022/05/21 07:09:15;;;;;;;15.90;6.00;;;;;;;13.87;79.59;101980.53;4972351;28;20077;-65
2022/05/21 07:11:41;;;;;;;17.45;5.63;;;;;;;13.91;78.93;101988.00;4972973;28;20035;-65
2022/05/21 07:14:06;;;;;;;17.67;6.05;;;;;;;13.95;80.15;101996.44;4989305;28;20041;-65
2022/05/21 07:16:32;;;;;;;16.92;6.18;;;;;;;14.04;79.83;101998.31;4990622;28;20530;-65
2022/05/21 07:18:57;;;;;;;16.58;5.72;;;;;;;14.10;78.97;102003.06;4974324;28;20390;-65
2022/05/21 07:21:23;;;;;;;16.98;6.35;;;;;;;14.21;80.27;102005.66;4977295;28;20553;-65
2022/05/21 07:23:49;;;;;;;16.17;5.85;;;;;;;14.26;78.76;102013.97;4970858;28;20499;-64
2022/05/21 07:26:15;;;;;;;18.05;5.40;;;;;;;14.29;78.38;102008.53;4979478;28;20053;-66
2022/05/21 07:28:41;;;;;;;15.88;5.60;;;;;;;14.35;78.14;102018.47;4989793;28;20407;-65
2022/05/21 07:31:08;;;;;;;16.42;5.90;;;;;;;14.42;78.08;102018.81;4990100;28;20042;-65
2022/05/21 07:33:33;;;;;;;14.35;5.10;;;;;;;14.42;77.64;102018.00;4989796;28;20568;-67
2022/05/21 07:35:58;;;;;;;14.23;4.78;;;;;;;14.51;76.99;102019.94;4989770;28;20510;-65
2022/05/21 07:38:24;;;;;;;13.75;4.88;;;;;;;14.40;75.30;102010.28;4989560;28;20553;-65
2022/05/21 07:40:51;;;;;;;12.60;5.07;;;;;;;14.40;75.82;102025.13;4986400;28;20034;-65
2022/05/21 07:43:27;;;;;;;15.88;5.00;;;;;;;14.56;76.21;102025.59;4970004;28;20490;-64
2022/05/21 07:45:53;;;;;;;13.70;4.43;;;;;;;14.55;74.61;102021.31;4989306;28;20061;-65
2022/05/21 07:48:19;;;;;;;15.05;4.95;;;;;;;14.76;74.59;102027.44;4988837;28;20474;-65
2022/05/21 07:50:51;;;;;;;14.85;5.15;;;;;;;14.81;74.39;102035.75;4988994;28;20030;-66
2022/05/21 07:53:20;;;;;;;16.88;5.00;;;;;;;14.74;74.33;102031.97;4987085;28;20034;-65
2022/05/21 07:55:46;;;;;;;;;;;;;;;14.92;75.98;102026.22;4988549;28;20628;-65
2022/05/21 07:58:12;;;;;;;13.93;4.70;;;;;;;14.80;73.54;102034.09;4988622;28;19913;-65
2022/05/21 08:00:38;;;;;;;12.77;4.45;;;;;;;14.94;73.41;102034.75;4987072;28;20026;-65
2022/05/21 08:03:04;;;;;;;12.30;4.97;;;;;;;15.15;73.40;102033.03;4988605;28;20989;-65
2022/05/21 08:05:29;;;;;;;12.65;4.75;;;;;;;15.26;74.65;102043.44;4989411;28;20069;-65
2022/05/21 08:07:55;;;;;;;13.57;5.20;;;;;;;15.32;73.50;102040.31;4989299;28;20040;-65
2022/05/21 08:10:23;;;;;;;16.52;5.47;;;;;;;15.23;73.17;102045.44;4988319;28;20026;-65
2022/05/21 08:12:50;;;;;;;14.35;5.03;;;;;;;15.43;74.26;102036.81;4971401;28;20041;-65
2022/05/21 08:15:16;;;;;;;14.15;5.32;;;;;;;15.53;73.50;102047.31;4988991;28;20045;-64
2022/05/21 08:17:41;;;;;;;15.45;4.78;;;;;;;15.30;70.82;102036.16;4986280;28;20467;-65
2022/05/21 08:20:10;;;;;;;13.68;5.35;;;;;;;15.54;72.39;102038.50;4969818;28;20495;-64
2022/05/21 08:28:03;;;;;;;12.93;4.30;;;;;;;15.41;69.72;102044.75;4981789;28;20525;-65
2022/05/21 08:30:29;;;;;;;12.82;4.30;;;;;;;15.44;69.23;102069.00;4987066;28;20053;-65
2022/05/21 08:33:02;;;;;;;13.13;4.20;;;;;;;15.55;70.04;102053.28;4988770;28;20392;-65
2022/05/21 08:35:27;;;;;;;11.32;4.20;;;;;;;15.70;69.74;102059.84;4988692;28;20053;-64
2022/05/21 08:37:53;;;;;;;9.65;3.92;;;;;;;15.87;70.46;102035.72;4971445;28;20018;-65
2022/05/21 08:40:19;;;;;;;11.73;3.78;;;;;;;15.92;68.94;102044.00;4988386;28;20053;-65
2022/05/21 08:42:55;;;;;;;10.02;3.88;;;;;;;15.82;68.21;102048.34;4988121;28;20033;-67
2022/05/21 08:45:31;;;;;;;11.73;4.47;;;;;;;15.75;68.03;102057.69;4971268;28;20062;-64
2022/05/21 08:48:02;;;;;;;13.90;4.43;;;;;;;15.96;69.18;102065.50;4969523;28;20081;-67
2022/05/21 08:50:33;;;;;;;11.15;5.15;;;;;;;16.06;67.88;102068.19;4951735;28;20449;-64
2022/05/21 08:53:06;;;;;;;12.77;4.80;;;;;;;16.15;68.76;102059.53;4969260;28;20027;-65
2022/05/21 08:55:36;;;;;;;11.02;4.13;;;;;;;16.04;68.81;102046.53;4987410;28;20026;-65
2022/05/21 08:58:07;;;;;;;11.68;4.20;;;;;;;16.24;68.60;102043.06;4988394;28;20046;-64
2022/05/21 09:00:37;;;;;;;13.50;4.05;;;;;;;16.05;67.51;102048.19;4988457;28;20053;-65
2022/05/21 09:03:09;;;;;;;12.75;4.10;;;;;;;16.12;67.58;102049.34;4988717;28;20022;-65
2022/05/21 09:05:36;;;;;;;13.50;4.43;;;;;;;16.07;65.74;102043.69;4988623;28;20034;-65
2022/05/21 09:08:31;;;;;;;12.82;4.57;;;;;;;16.35;67.97;102061.28;4988338;28;20034;-65
2022/05/21 09:11:11;;;;;;;13.20;3.80;;;;;;;16.20;65.35;102052.13;4987923;28;20026;-65
2022/05/21 09:13:44;;;;;;;10.05;3.50;;;;;;;16.22;64.71;102047.56;4968810;28;20038;-64
2022/05/21 09:18:59;;;;;;;10.80;3.22;;;;;;;16.58;66.51;102040.13;4979380;28;20092;-66
2022/05/21 09:21:27;;;;;;;11.38;3.58;;;;;;;16.74;68.35;102029.94;4986167;28;20534;-65
2022/05/21 09:24:04;;;;;;;11.43;2.88;;;;;;;16.89;66.72;102033.84;4986909;28;20030;-67
2022/05/21 09:26:44;;;;;;;12.63;3.28;;;;;;;16.85;66.64;102040.31;4985319;28;20042;-66
2022/05/21 09:29:17;;;;;;;10.57;2.92;;;;;;;16.83;64.71;102052.72;4970447;28;20494;-66
2022/05/21 09:31:43;;;;;;;11.35;3.40;;;;;;;16.87;63.77;102053.31;4967351;28;20089;-68
2022/05/21 09:34:29;;;;;;;9.95;3.17;;;;;;;16.71;65.26;102045.97;4968060;28;20066;-65
2022/05/21 09:36:57;;;;;;;11.13;3.55;;;;;;;16.72;64.22;102063.34;4978599;28;20030;-65
2022/05/21 09:39:39;;;;;;;9.13;3.25;;;;;;;16.80;65.66;102058.22;4987129;28;20037;-65
2022/05/21 09:45:32;;;;;;;12.52;3.28;;;;;;;16.73;65.99;102059.75;4987754;28;20052;-66
2022/05/21 09:48:03;;;;;;;11.05;3.05;;;;;;;16.74;64.79;102061.38;4968228;28;20031;-65
2022/05/21 09:50:30;;;;;;;10.35;3.10;;;;;;;16.66;64.34;102069.09;4969148;28;20046;-65
2022/05/21 09:52:56;;;;;;;11.52;3.13;;;;;;;16.64;63.69;102060.53;4987710;28;20049;-66
2022/05/21 09:55:26;;;;;;;13.52;3.35;;;;;;;16.74;65.36;102061.38;4987748;28;20113;-66
2022/05/21 09:57:52;;;;;;;9.60;3.05;;;;;;;16.72;63.39;102063.34;4988061;28;20050;-65
2022/05/21 10:00:25;;;;;;;12.25;3.20;;;;;;;16.58;64.07;102066.31;4970055;28;20066;-66
2022/05/21 10:02:54;;;;;;;9.93;2.92;;;;;;;16.43;63.35;102068.47;4974098;28;20038;-65
2022/05/21 10:05:52;;;;;;;11.73;3.03;;;;;;;16.58;64.86;102076.78;4967103;28;20074;-66
2022/05/21 10:11:55;;;;;;;12.70;3.25;;;;;;;16.69;65.69;102071.44;4968739;28;20048;-65
2022/05/21 10:14:38;;;;;;;10.95;3.00;;;;;;;16.68;65.20;102075.81;4955969;28;20043;-65
2022/05/21 10:17:20;;;;;;;11.35;2.88;;;;;;;16.76;64.87;102069.97;4966971;28;20121;-65
2022/05/21 10:20:10;;;;;;;9.23;2.92;;;;;;;16.75;63.38;102084.03;4970398;28;20039;-65
2022/05/21 10:23:02;;;;;;;10.02;2.88;;;;;;;16.73;63.76;102078.09;4988515;28;20457;-67
2022/05/21 10:25:50;;;;;;;11.82;3.38;;;;;;;16.78;64.59;102080.31;4991387;28;20062;-65
2022/05/21 10:28:26;;;;;;;9.15;3.08;;;;;;;16.73;63.73;102075.47;4983926;28;20513;-65
2022/05/21 10:31:08;;;;;;;14.50;3.15;;;;;;;16.88;64.29;102084.59;4978627;28;20122;-65
2022/05/21 10:33:52;;;;;;;9.43;2.80;;;;;;;16.79;62.90;102080.16;4991004;28;20097;-67
2022/05/21 10:36:32;;;;;;;9.18;2.70;;;;;;;16.95;63.40;102083.09;4990201;28;20529;-66
2022/05/21 10:39:09;;;;;;;10.40;3.10;;;;;;;17.02;63.30;102074.69;4990826;28;20022;-65
2022/05/21 10:41:41;;;;;;;8.95;2.53;;;;;;;16.95;63.30;102069.97;4990847;28;20034;-65
2022/05/21 10:44:07;;;;;;;11.52;2.80;;;;;;;17.14;63.33;102074.41;4990916;28;20622;-65
2022/05/21 10:46:43;;;;;;;12.07;3.28;;;;;;;17.32;64.58;102077.19;4980920;28;20129;-66
2022/05/21 10:49:40;;;;;;;10.55;2.45;;;;;;;17.37;64.75;102090.69;4975935;28;20039;-66
2022/05/21 10:52:30;;;;;;;13.15;3.03;;;;;;;17.41;65.52;102086.84;4989590;28;20530;-66
2022/05/21 10:55:34;;;;;;;14.63;3.20;;;;;;;17.60;65.37;102093.03;4991096;28;20030;-67
2022/05/21 10:58:17;;;;;;;12.68;3.00;;;;;;;17.67;65.06;102091.50;4990864;28;20026;-66
2022/05/21 11:00:55;;;;;;;11.95;3.13;;;;;;;17.69;62.50;102095.63;4990391;28;20529;-66
2022/05/21 11:03:39;;;;;;;;;;;;;;;17.82;64.69;102095.38;4983847;28;20057;-65
2022/05/21 11:06:07;;;;;;;13.18;3.05;;;;;;;17.58;62.18;102094.97;4983797;28;19925;-66
2022/05/21 11:08:57;;;;;;;10.57;2.90;;;;;;;17.62;62.55;102104.22;4990588;28;20034;-66
2022/05/21 11:11:42;;;;;;;10.57;2.58;;;;;;;17.42;61.94;102101.59;4990176;28;20022;-66
2022/05/21 11:14:33;;;;;;;12.27;2.72;;;;;;;17.48;62.92;102108.09;4990100;28;20052;-66
2022/05/21 11:17:21;;;;;;;13.02;2.97;;;;;;;17.41;61.74;102109.59;4982528;28;20034;-66
2022/05/21 11:19:54;;;;;;;10.63;3.17;;;;;;;17.37;61.04;102106.44;4983806;28;20092;-66
2022/05/21 11:22:37;;;;;;;10.25;2.88;;;;;;;17.46;61.08;102099.53;4988326;28;20081;-66
2022/05/21 11:25:27;;;;;;;10.25;2.40;;;;;;;17.71;61.53;102098.13;4973382;28;20034;-66
2022/05/21 11:28:19;;;;;;;9.77;2.70;;;;;;;17.76;60.20;102101.19;4970445;28;20046;-66
2022/05/21 11:30:44;;;;;;;8.15;2.35;;;;;;;17.87;58.90;102098.41;4955352;28;20054;-66
2022/05/21 11:38:58;;;;;;;9.98;2.65;;;;;;;17.57;59.84;102101.19;4990053;28;20117;-66
2022/05/21 11:41:52;;;;;;;12.10;2.80;;;;;;;17.58;60.72;102105.47;4989492;28;20068;-66
2022/05/21 11:47:07;;;;;;;8.77;2.17;;;;;;;17.63;58.53;102090.13;4989587;28;20061;-66
2022/05/21 11:49:35;;;;;;;;;;;;;;;17.98;59.93;102095.59;4990217;28;20041;-65
2022/05/21 11:52:30;;;;;;;10.75;2.35;;;;;;;18.00;61.28;102098.91;4972131;28;19918;-66
2022/05/21 11:55:01;;;;;;;10.35;2.88;;;;;;;17.88;58.01;102100.03;4976094;28;20509;-66
2022/05/21 11:57:36;;;;;;;10.77;2.60;;;;;;;18.05;59.09;102099.31;4969982;28;20034;-66
2022/05/21 12:00:28;;;;;;;10.63;2.47;;;;;;;17.78;58.24;102094.00;4972640;28;20109;-66
2022/05/21 12:02:53;;;;;;;11.13;2.42;;;;;;;18.07;59.34;102098.38;4975360;28;20065;-66